createdAt,value
2022-08-12T00:02:44.279Z,24.66
2022-08-12T00:05:31.355Z,24.60
2022-08-12T00:08:16.775Z,24.56
2022-08-12T00:11:12.229Z,24.51
2022-08-12T00:13:57.913Z,24.46
2022-08-12T00:16:46.651Z,24.40
2022-08-12T00:19:32.278Z,24.36
2022-08-12T00:22:18.959Z,24.32
2022-08-12T00:25:05.181Z,24.28
2022-08-12T00:27:51.509Z,24.23
2022-08-12T00:30:36.710Z,24.18
2022-08-12T00:33:22.139Z,24.12
2022-08-12T00:36:17.804Z,24.04
2022-08-12T00:39:17.154Z,24.00
2022-08-12T00:42:03.039Z,23.94
2022-08-12T00:44:29.873Z,23.89
2022-08-12T00:47:01.742Z,23.82
2022-08-12T00:49:30.565Z,23.80
2022-08-12T00:52:12.114Z,23.76
2022-08-12T00:54:44.441Z,23.70
2022-08-12T00:57:10.966Z,23.69
2022-08-12T00:59:43.828Z,23.63
2022-08-12T01:02:14.648Z,23.61
2022-08-12T01:05:02.371Z,23.59
2022-08-12T01:07:48.157Z,23.55
2022-08-12T01:10:33.445Z,23.51
2022-08-12T01:13:07.261Z,23.48
2022-08-12T01:15:47.070Z,23.44
2022-08-12T01:18:14.523Z,23.40
2022-08-12T01:21:04.031Z,23.33
2022-08-12T01:23:57.152Z,23.32
2022-08-12T01:26:25.490Z,23.34
2022-08-12T01:28:58.616Z,23.27
2022-08-12T01:31:27.232Z,23.26
2022-08-12T01:34:04.552Z,23.17
2022-08-12T01:36:44.432Z,23.11
2022-08-12T01:39:11.102Z,23.11
2022-08-12T01:41:53.556Z,23.02
2022-08-12T01:44:22.519Z,23.02
2022-08-12T01:47:04.240Z,22.97
2022-08-12T01:50:08.239Z,22.90
2022-08-12T01:52:59.935Z,22.88
2022-08-12T01:55:35.264Z,22.85
2022-08-12T01:58:18.744Z,22.79
2022-08-12T02:00:58.657Z,22.75
2022-08-12T02:03:55.045Z,22.69
2022-08-12T02:06:58.900Z,22.66
2022-08-12T02:10:11.442Z,22.63
2022-08-12T02:13:10.011Z,22.60
2022-08-12T02:15:51.237Z,22.57
2022-08-12T02:18:34.212Z,22.54
2022-08-12T02:21:05.754Z,22.51
2022-08-12T02:23:34.769Z,22.49
2022-08-12T02:26:09.348Z,22.44
2022-08-12T02:28:38.325Z,22.43
2022-08-12T02:31:06.648Z,22.42
2022-08-12T02:33:34.280Z,22.40
2022-08-12T02:36:02.553Z,22.38
2022-08-12T02:38:31.312Z,22.37
2022-08-12T02:41:01.314Z,22.36
2022-08-12T02:43:37.934Z,22.33
2022-08-12T02:46:14.039Z,22.32
2022-08-12T02:48:51.491Z,22.29
2022-08-12T02:51:23.354Z,22.30
2022-08-12T02:54:04.480Z,22.27
2022-08-12T02:56:41.040Z,22.28
2022-08-12T02:59:16.508Z,22.26
2022-08-12T03:01:50.832Z,22.23
2022-08-12T03:04:26.900Z,22.22
2022-08-12T03:07:11.067Z,22.20
2022-08-12T03:09:59.340Z,22.17
2022-08-12T03:12:36.457Z,22.13
2022-08-12T03:15:18.030Z,22.07
2022-08-12T03:18:25.893Z,22.00
2022-08-12T03:20:43.238Z,22.00
2022-08-12T03:23:17.553Z,21.94
2022-08-12T03:26:00.752Z,21.91
2022-08-12T03:28:49.696Z,21.89
2022-08-12T03:31:19.654Z,21.85
2022-08-12T03:34:02.003Z,21.82
2022-08-12T03:36:35.197Z,21.78
2022-08-12T03:39:17.611Z,21.74
2022-08-12T03:41:58.013Z,21.68
2022-08-12T03:44:57.776Z,21.66
2022-08-12T03:47:58.415Z,21.63
2022-08-12T03:50:44.224Z,21.65
2022-08-12T03:53:30.725Z,21.63
2022-08-12T03:56:16.025Z,21.59
2022-08-12T03:59:01.563Z,21.56
2022-08-12T04:01:28.231Z,21.52
2022-08-12T04:03:55.368Z,21.47
2022-08-12T04:06:34.743Z,21.45
2022-08-12T04:09:16.093Z,21.45
2022-08-12T04:12:03.697Z,21.46
2022-08-12T04:14:31.570Z,21.50
2022-08-12T04:16:58.519Z,21.51
2022-08-12T04:19:26.494Z,21.51
2022-08-12T04:22:02.311Z,21.53
2022-08-12T04:24:37.966Z,21.53
2022-08-12T04:27:08.862Z,21.53
2022-08-12T04:30:21.194Z,21.54
2022-08-12T04:32:24.981Z,21.55
2022-08-12T04:34:51.844Z,21.54
2022-08-12T04:37:18.990Z,21.53
2022-08-12T04:39:49.032Z,21.52
2022-08-12T04:42:16.317Z,21.54
2022-08-12T04:44:43.403Z,21.54
2022-08-12T04:47:14.315Z,21.51
2022-08-12T04:49:43.254Z,21.52
2022-08-12T04:52:10.269Z,21.51
2022-08-12T04:54:37.788Z,21.51
2022-08-12T04:57:05.778Z,21.52
2022-08-12T04:59:47.750Z,21.53
2022-08-12T05:02:20.885Z,21.52
2022-08-12T05:04:51.857Z,21.54
2022-08-12T05:07:19.599Z,21.54
2022-08-12T05:10:00.441Z,21.54
2022-08-12T05:12:34.208Z,21.54
2022-08-12T05:15:00.820Z,21.55
2022-08-12T05:17:28.241Z,21.55
2022-08-12T05:19:57.458Z,21.55
2022-08-12T05:22:26.290Z,21.56
2022-08-12T05:24:53.179Z,21.57
2022-08-12T05:27:19.803Z,21.58
2022-08-12T05:30:08.355Z,21.60
2022-08-12T05:32:36.759Z,21.64
2022-08-12T05:35:06.642Z,21.66
2022-08-12T05:37:34.861Z,21.68
2022-08-12T05:40:08.350Z,21.69
2022-08-12T05:42:46.688Z,21.71
2022-08-12T05:45:13.526Z,21.73
2022-08-12T05:47:53.670Z,21.75
2022-08-12T05:50:20.911Z,21.80
2022-08-12T05:52:50.419Z,21.80
2022-08-12T05:55:20.494Z,21.84
2022-08-12T05:57:55.423Z,21.90
2022-08-12T06:00:26.841Z,21.94
2022-08-12T06:03:09.032Z,21.94
2022-08-12T06:05:54.849Z,21.98
2022-08-12T06:08:24.032Z,22.03
2022-08-12T06:10:50.823Z,22.08
2022-08-12T06:13:28.241Z,22.13
2022-08-12T06:16:13.194Z,22.20
2022-08-12T06:18:49.410Z,22.25
2022-08-12T06:21:18.912Z,22.33
2022-08-12T06:23:56.466Z,22.39
2022-08-12T06:26:23.155Z,22.46
2022-08-12T06:29:00.734Z,22.54
2022-08-12T06:31:27.918Z,22.61
2022-08-12T06:34:52.732Z,22.68
2022-08-12T06:36:49.653Z,22.74
2022-08-12T06:39:25.174Z,22.83
2022-08-12T06:42:32.185Z,22.92
2022-08-12T06:44:56.637Z,23.03
2022-08-12T06:47:23.158Z,23.13
2022-08-12T06:49:50.249Z,23.22
2022-08-12T06:52:17.360Z,23.30
2022-08-12T06:54:47.163Z,23.41
2022-08-12T06:58:06.025Z,23.53
2022-08-12T07:00:11.491Z,23.64
2022-08-12T07:02:38.192Z,23.78
2022-08-12T07:05:05.216Z,23.88
2022-08-12T07:07:31.755Z,24.00
2022-08-12T07:10:06.909Z,24.10
2022-08-12T07:12:34.605Z,24.23
2022-08-12T07:15:02.063Z,24.32
2022-08-12T07:17:37.844Z,24.44
2022-08-12T07:20:50.814Z,24.53
2022-08-12T07:23:06.694Z,24.66
2022-08-12T07:25:41.058Z,24.72
2022-08-12T07:28:16.720Z,24.80
2022-08-12T07:30:45.631Z,24.91
2022-08-12T07:33:13.094Z,24.99
2022-08-12T07:35:45.516Z,25.07
2022-08-12T07:38:34.539Z,25.12
2022-08-12T07:41:15.516Z,25.26
2022-08-12T07:43:54.787Z,25.34
2022-08-12T07:46:25.889Z,25.46
2022-08-12T07:48:55.092Z,25.54
2022-08-12T07:51:33.997Z,25.63
2022-08-12T07:54:02.735Z,25.76
2022-08-12T07:56:31.294Z,25.85
2022-08-12T07:58:59.279Z,25.96
2022-08-12T08:01:26.329Z,26.05
2022-08-12T08:04:17.940Z,26.14
2022-08-12T08:06:46.356Z,26.27
2022-08-12T08:09:15.763Z,26.36
2022-08-12T08:12:01.241Z,26.47
2022-08-12T08:14:29.190Z,26.58
2022-08-12T08:16:57.592Z,26.66
2022-08-12T08:19:25.511Z,26.78
2022-08-12T08:21:54.955Z,26.88
2022-08-12T08:24:24.625Z,26.99
2022-08-12T08:26:52.949Z,27.11
2022-08-12T08:29:24.032Z,27.23
2022-08-12T08:31:54.096Z,27.33
2022-08-12T08:34:27.593Z,27.44
2022-08-12T08:37:10.696Z,27.58
2022-08-12T08:39:42.316Z,27.68
2022-08-12T08:42:27.683Z,27.78
2022-08-12T08:44:58.888Z,27.92
2022-08-12T08:47:25.970Z,28.01
2022-08-12T08:49:52.658Z,28.13
2022-08-12T08:52:35.208Z,28.23
2022-08-12T08:55:14.007Z,28.38
2022-08-12T08:57:44.757Z,28.49
2022-08-12T09:00:16.950Z,28.60
2022-08-12T09:02:49.446Z,28.72
2022-08-12T09:05:26.068Z,28.84
2022-08-12T09:08:12.142Z,28.96
2022-08-12T09:10:39.374Z,29.07
2022-08-12T09:14:10.707Z,29.18
2022-08-12T09:16:20.653Z,29.32
2022-08-12T09:21:54.851Z,29.55
2022-08-12T09:24:21.625Z,29.67
2022-08-12T09:26:49.157Z,29.79
2022-08-12T09:29:20.400Z,29.88
2022-08-12T09:32:09.533Z,30.00
2022-08-12T09:34:43.098Z,30.11
2022-08-12T09:37:20.099Z,30.21
2022-08-12T09:40:03.190Z,30.30
2022-08-12T09:43:15.498Z,30.40
2022-08-12T09:46:11.783Z,30.52
2022-08-12T09:48:34.910Z,30.64
2022-08-12T09:51:16.708Z,30.72
2022-08-12T09:54:08.858Z,30.81
2022-08-12T09:56:59.209Z,30.91
2022-08-12T10:00:15.137Z,31.01
2022-08-12T10:02:45.237Z,31.12
2022-08-12T10:05:00.795Z,31.22
2022-08-12T10:07:39.652Z,31.31
2022-08-12T10:10:22.365Z,31.40
2022-08-12T10:13:12.903Z,31.52
2022-08-12T10:16:01.481Z,31.63
2022-08-12T10:18:32.326Z,31.71
2022-08-12T10:20:59.371Z,31.81
2022-08-12T10:23:38.419Z,31.89
2022-08-12T10:26:37.378Z,31.95
2022-08-12T10:30:37.105Z,32.04
2022-08-12T10:32:45.278Z,32.15
2022-08-12T10:35:08.402Z,32.22
2022-08-12T10:38:38.004Z,32.29
2022-08-12T10:40:28.716Z,32.35
2022-08-12T10:43:16.733Z,32.42
2022-08-12T10:45:43.892Z,32.49
2022-08-12T10:48:21.401Z,32.55
2022-08-12T10:51:00.975Z,32.64
2022-08-12T10:53:44.219Z,32.75
2022-08-12T10:56:17.761Z,32.93
2022-08-12T10:58:46.900Z,33.13
2022-08-12T11:04:14.374Z,33.40
2022-08-12T11:04:25.627Z,33.83
2022-08-12T11:07:05.820Z,34.36
2022-08-12T11:09:41.592Z,35.01
2022-08-12T11:12:55.791Z,35.68
2022-08-12T11:15:18.856Z,36.36
2022-08-12T11:17:53.524Z,37.00
2022-08-12T11:20:21.002Z,37.58
2022-08-12T11:22:59.043Z,38.09
2022-08-12T11:25:56.044Z,38.60
2022-08-12T11:28:14.043Z,39.11
2022-08-12T11:30:41.349Z,39.51
2022-08-12T11:33:11.969Z,39.87
2022-08-12T11:35:44.289Z,40.20
2022-08-12T11:38:13.629Z,40.47
2022-08-12T11:40:47.122Z,40.71
2022-08-12T11:43:18.999Z,40.93
2022-08-12T11:45:52.824Z,41.09
2022-08-12T11:48:26.642Z,41.24
2022-08-12T11:50:57.059Z,41.35
2022-08-12T11:53:58.829Z,41.46
2022-08-12T11:56:11.507Z,41.60
2022-08-12T12:01:58.392Z,41.71
2022-08-12T12:02:01.568Z,41.87
2022-08-12T12:04:11.992Z,42.02
2022-08-12T12:06:38.642Z,42.16
2022-08-12T12:09:11.892Z,42.29
2022-08-12T12:11:39.099Z,42.45
2022-08-12T12:14:15.905Z,42.65
2022-08-12T12:16:49.927Z,42.85
2022-08-12T12:19:20.348Z,43.04
2022-08-12T12:21:49.705Z,43.21
2022-08-12T12:24:21.159Z,43.39
2022-08-12T12:26:59.722Z,43.56
2022-08-12T12:30:18.138Z,43.70
2022-08-12T12:32:28.776Z,43.85
2022-08-12T12:35:14.474Z,44.00
2022-08-12T12:38:12.585Z,44.18
2022-08-12T12:40:50.604Z,44.42
2022-08-12T12:43:28.890Z,44.63
2022-08-12T12:46:05.725Z,44.80
2022-08-12T12:48:35.208Z,44.90
2022-08-12T12:51:48.360Z,45.02
2022-08-12T12:54:07.071Z,45.15
2022-08-12T12:56:40.558Z,45.25
2022-08-12T12:59:54.450Z,45.37
2022-08-12T13:01:55.287Z,45.55
2022-08-12T13:04:22.376Z,45.67
2022-08-12T13:06:52.402Z,45.78
2022-08-12T13:09:22.225Z,45.86
2022-08-12T13:11:53.442Z,45.92
2022-08-12T13:14:28.249Z,46.01
2022-08-12T13:17:02.480Z,46.13
2022-08-12T13:19:38.662Z,46.25
2022-08-12T13:22:20.359Z,46.39
2022-08-12T13:24:55.557Z,46.52
2022-08-12T13:27:34.898Z,46.66
2022-08-12T13:30:11.505Z,46.82
2022-08-12T13:32:57.700Z,46.93
2022-08-12T13:35:33.417Z,47.10
2022-08-12T13:38:14.008Z,47.25
2022-08-12T13:40:40.705Z,47.37
2022-08-12T13:43:07.622Z,47.49
2022-08-12T13:45:36.862Z,47.61
2022-08-12T13:48:07.568Z,47.70
2022-08-12T13:50:36.566Z,47.79
2022-08-12T13:53:23.185Z,47.82
2022-08-12T13:55:59.342Z,47.85
2022-08-12T13:58:26.569Z,47.86
2022-08-12T14:00:55.406Z,47.90
2022-08-12T14:03:28.302Z,47.96
2022-08-12T14:06:15.362Z,48.03
2022-08-12T14:08:43.274Z,48.08
2022-08-12T14:11:12.356Z,48.09
2022-08-12T14:14:03.349Z,48.07
2022-08-12T14:16:37.754Z,48.06
2022-08-12T14:19:22.344Z,48.03
2022-08-12T14:21:59.091Z,48.02
2022-08-12T14:24:30.780Z,48.00
2022-08-12T14:26:58.688Z,47.98
2022-08-12T14:29:56.430Z,47.97
2022-08-12T14:32:17.825Z,47.91
2022-08-12T14:34:46.950Z,47.82
2022-08-12T14:37:54.882Z,47.75
2022-08-12T14:40:01.243Z,47.70
2022-08-12T14:42:28.378Z,47.67
2022-08-12T14:45:01.608Z,47.69
2022-08-12T14:47:29.217Z,47.77
2022-08-12T14:50:58.199Z,47.85
2022-08-12T14:58:31.802Z,47.83
2022-08-12T15:01:21.354Z,47.79
2022-08-12T15:03:56.769Z,47.81
2022-08-12T15:06:43.540Z,47.82
2022-08-12T15:09:15.904Z,47.81
2022-08-12T15:11:54.925Z,47.83
2022-08-12T15:14:25.461Z,47.84
2022-08-12T15:16:53.162Z,47.82
2022-08-12T15:20:16.762Z,47.77
2022-08-12T15:22:37.407Z,47.73
2022-08-12T15:24:56.749Z,47.69
2022-08-12T15:28:03.387Z,47.72
2022-08-12T15:30:10.430Z,47.76
2022-08-12T15:32:37.644Z,47.77
2022-08-12T15:35:12.040Z,47.71
2022-08-12T15:38:11.259Z,47.63
2022-08-12T15:40:29.748Z,47.49
2022-08-12T15:42:59.747Z,47.33
2022-08-12T15:45:32.075Z,47.32
2022-08-12T15:48:16.846Z,47.21
2022-08-12T15:50:47.086Z,47.08
2022-08-12T15:53:38.202Z,46.92
2022-08-12T15:56:07.883Z,46.75
2022-08-12T15:58:41.423Z,46.61
2022-08-12T16:01:15.172Z,46.42
2022-08-12T16:04:00.515Z,46.26
2022-08-12T16:06:50.914Z,46.13
2022-08-12T16:09:21.856Z,45.98
2022-08-12T16:12:07.900Z,45.76
2022-08-12T16:14:38.806Z,45.55
2022-08-12T16:17:05.500Z,45.33
2022-08-12T16:20:04.997Z,45.13
2022-08-12T16:22:24.532Z,44.92
2022-08-12T16:24:54.107Z,44.76
2022-08-12T16:27:23.798Z,44.63
2022-08-12T16:29:57.226Z,44.51
2022-08-12T16:32:31.754Z,44.36
2022-08-12T16:35:01.350Z,44.20
2022-08-12T16:38:04.668Z,44.02
2022-08-12T16:40:16.132Z,43.71
2022-08-12T16:42:54.291Z,43.37
2022-08-12T16:46:23.461Z,42.92
2022-08-12T16:48:34.696Z,42.36
2022-08-12T16:51:12.631Z,41.76
2022-08-12T16:53:44.315Z,41.22
2022-08-12T16:56:14.403Z,40.61
2022-08-12T16:58:41.996Z,40.05
2022-08-12T17:01:13.870Z,39.54
2022-08-12T17:03:59.730Z,39.09
2022-08-12T17:06:28.094Z,38.68
2022-08-12T17:09:03.115Z,38.36
2022-08-12T17:11:33.381Z,38.08
2022-08-12T17:14:01.681Z,37.82
2022-08-12T17:16:29.932Z,37.55
2022-08-12T17:19:03.023Z,37.28
2022-08-12T17:21:41.591Z,37.00
2022-08-12T17:24:21.423Z,36.71
2022-08-12T17:26:53.928Z,36.48
2022-08-12T17:33:02.979Z,35.94
2022-08-12T17:35:36.765Z,35.72
2022-08-12T17:38:06.625Z,35.53
2022-08-12T17:40:36.887Z,35.34
2022-08-12T17:43:56.520Z,35.17
2022-08-12T17:45:58.972Z,35.01
2022-08-12T17:48:34.387Z,34.87
2022-08-12T17:51:15.339Z,34.70
2022-08-12T17:54:10.514Z,34.57
2022-08-12T17:56:31.819Z,34.44
2022-08-12T17:59:00.341Z,34.32
2022-08-12T18:01:28.971Z,34.18
2022-08-12T18:04:20.807Z,34.04
2022-08-12T18:06:50.300Z,33.90
2022-08-12T18:09:18.036Z,33.77
2022-08-12T18:12:07.781Z,33.62
2022-08-12T18:14:37.327Z,33.48
2022-08-12T18:17:08.537Z,33.34
2022-08-12T18:20:04.832Z,33.22
2022-08-12T18:22:30.697Z,33.10
2022-08-12T18:25:06.297Z,32.96
2022-08-12T18:27:43.851Z,32.85
2022-08-12T18:30:16.347Z,32.73
2022-08-12T18:32:59.525Z,32.61
2022-08-12T18:35:47.792Z,32.47
2022-08-12T18:38:20.859Z,32.33
2022-08-12T18:41:09.558Z,32.20
2022-08-12T18:43:58.774Z,32.07
2022-08-12T18:46:54.389Z,31.90
2022-08-12T18:49:38.036Z,31.82
2022-08-12T18:52:08.094Z,31.70
2022-08-12T18:54:47.883Z,31.56
2022-08-12T18:58:07.006Z,31.38
2022-08-12T19:00:15.988Z,31.18
2022-08-12T19:02:44.766Z,31.01
2022-08-12T19:05:17.685Z,30.86
2022-08-12T19:08:01.637Z,30.71
2022-08-12T19:10:30.390Z,30.59
2022-08-12T19:13:20.982Z,30.46
2022-08-12T19:15:49.984Z,30.32
2022-08-12T19:18:17.644Z,30.27
2022-08-12T19:20:50.669Z,30.15
2022-08-12T19:23:21.224Z,30.01
2022-08-12T19:25:59.530Z,29.88
2022-08-12T19:28:30.326Z,29.77
2022-08-12T19:31:56.633Z,29.60
2022-08-12T19:38:02.738Z,29.37
2022-08-12T19:40:31.452Z,29.29
2022-08-12T19:43:17.319Z,29.16
2022-08-12T19:45:50.532Z,29.05
2022-08-12T19:48:23.164Z,28.92
2022-08-12T19:50:53.503Z,28.85
2022-08-12T19:53:24.279Z,28.72
2022-08-12T19:55:53.993Z,28.65
2022-08-12T19:58:22.259Z,28.57
2022-08-12T20:00:53.222Z,28.48
2022-08-12T20:03:38.767Z,28.38
2022-08-12T20:06:13.696Z,28.28
2022-08-12T20:08:49.218Z,28.19
2022-08-12T20:12:10.250Z,28.07
2022-08-12T20:14:19.276Z,27.98
2022-08-12T20:16:56.373Z,27.89
2022-08-12T20:19:53.076Z,27.80
2022-08-12T20:22:23.948Z,27.71
2022-08-12T20:24:54.904Z,27.67
2022-08-12T20:27:29.044Z,27.60
2022-08-12T20:30:11.520Z,27.52
2022-08-12T20:33:00.573Z,27.37
2022-08-12T20:35:38.947Z,27.34
2022-08-12T20:38:26.556Z,27.27
2022-08-12T20:40:54.865Z,27.19
2022-08-12T20:43:24.129Z,27.12
2022-08-12T20:45:57.242Z,27.05
2022-08-12T20:48:25.290Z,26.99
2022-08-12T20:50:54.032Z,26.95
2022-08-12T20:53:27.776Z,26.91
2022-08-12T20:56:31.152Z,26.85
2022-08-12T20:59:01.113Z,26.85
2022-08-12T21:01:45.908Z,26.82
2022-08-12T21:04:33.029Z,26.80
2022-08-12T21:07:04.578Z,26.79
2022-08-12T21:09:42.467Z,26.74
2022-08-12T21:12:27.346Z,26.73
2022-08-12T21:15:04.486Z,26.72
2022-08-12T21:18:00.700Z,26.70
2022-08-12T21:20:32.492Z,26.67
2022-08-12T21:22:59.039Z,26.63
2022-08-12T21:25:44.179Z,26.61
2022-08-12T21:28:15.181Z,26.57
2022-08-12T21:31:10.462Z,26.56
2022-08-12T21:33:31.610Z,26.54
2022-08-12T21:36:01.014Z,26.51
2022-08-12T21:38:34.932Z,26.48
2022-08-12T21:41:07.002Z,26.45
2022-08-12T21:43:44.785Z,26.41
2022-08-12T21:46:34.966Z,26.37
2022-08-12T21:49:05.134Z,26.35
2022-08-12T21:51:49.000Z,26.31
2022-08-12T21:54:23.174Z,26.29
2022-08-12T21:56:53.670Z,26.27
2022-08-12T21:59:21.791Z,26.27
2022-08-12T22:01:49.771Z,26.28
2022-08-12T22:04:36.302Z,26.28
2022-08-12T22:07:04.509Z,26.29
2022-08-12T22:09:43.282Z,26.29
2022-08-12T22:12:28.886Z,26.30
2022-08-12T22:14:55.457Z,26.27
2022-08-12T22:17:49.420Z,26.28
2022-08-12T22:20:17.445Z,26.26
2022-08-12T22:22:56.660Z,26.25
2022-08-12T22:25:27.724Z,26.25
2022-08-12T22:28:13.093Z,26.22
2022-08-12T22:31:06.797Z,26.20
2022-08-12T22:33:54.407Z,26.20
2022-08-12T22:36:28.799Z,26.18
2022-08-12T22:38:59.027Z,26.14
2022-08-12T22:41:45.143Z,26.13
2022-08-12T22:44:30.986Z,26.08
2022-08-12T22:47:03.407Z,26.06
2022-08-12T22:49:37.375Z,26.02
2022-08-12T22:52:18.654Z,26.00
2022-08-12T22:55:03.300Z,25.97
2022-08-12T22:57:49.413Z,25.93
2022-08-12T23:00:27.074Z,25.91
2022-08-12T23:02:56.920Z,25.86
2022-08-12T23:05:57.058Z,25.82
2022-08-12T23:08:13.657Z,25.77
2022-08-12T23:10:41.146Z,25.73
2022-08-12T23:13:30.186Z,25.69
2022-08-12T23:16:10.888Z,25.67
2022-08-12T23:19:01.594Z,25.63
2022-08-12T23:22:05.559Z,25.61
2022-08-12T23:24:35.122Z,25.60
2022-08-12T23:27:21.923Z,25.59
2022-08-12T23:30:05.898Z,25.58
2022-08-12T23:32:37.011Z,25.57
2022-08-12T23:35:06.457Z,25.56
2022-08-12T23:37:46.630Z,25.55
2022-08-12T23:40:17.869Z,25.55
2022-08-12T23:42:45.283Z,25.53
2022-08-12T23:45:20.165Z,25.51
2022-08-12T23:48:00.014Z,25.48
2022-08-12T23:50:34.049Z,25.48
2022-08-12T23:53:05.805Z,25.45
2022-08-12T23:55:40.797Z,25.43
2022-08-12T23:58:20.848Z,25.43
